sensor_id;sensor_type;location;lat;lon;timestamp;P1;durP1;ratioP1;P2;durP2;ratioP2
40533;SDS011;26233;51.894;10.192;2022-10-22T00:01:57;3.15;;;2.40;;
40533;SDS011;26233;51.894;10.192;2022-10-22T00:04:24;4.93;;;2.58;;
40533;SDS011;26233;51.894;10.192;2022-10-22T00:06:51;2.85;;;2.63;;
40533;SDS011;26233;51.894;10.192;2022-10-22T00:09:18;2.97;;;2.67;;
40533;SDS011;26233;51.894;10.192;2022-10-22T00:11:45;4.95;;;2.78;;
40533;SDS011;26233;51.894;10.192;2022-10-22T00:14:12;3.33;;;2.58;;
40533;SDS011;26233;51.894;10.192;2022-10-22T00:16:41;4.15;;;3.05;;
40533;SDS011;26233;51.894;10.192;2022-10-22T00:19:08;2.95;;;2.75;;
40533;SDS011;26233;51.894;10.192;2022-10-22T00:21:37;3.22;;;3.03;;
40533;SDS011;26233;51.894;10.192;2022-10-22T00:24:04;3.30;;;2.80;;
40533;SDS011;26233;51.894;10.192;2022-10-22T00:26:31;3.00;;;2.70;;
40533;SDS011;26233;51.894;10.192;2022-10-22T00:28:58;3.17;;;2.88;;
40533;SDS011;26233;51.894;10.192;2022-10-22T00:31:25;4.85;;;2.90;;
40533;SDS011;26233;51.894;10.192;2022-10-22T00:33:54;2.75;;;2.50;;
40533;SDS011;26233;51.894;10.192;2022-10-22T00:36:21;3.05;;;2.85;;
40533;SDS011;26233;51.894;10.192;2022-10-22T00:38:48;2.70;;;2.33;;
40533;SDS011;26233;51.894;10.192;2022-10-22T00:41:16;2.95;;;2.45;;
40533;SDS011;26233;51.894;10.192;2022-10-22T00:46:30;2.75;;;2.47;;
40533;SDS011;26233;51.894;10.192;2022-10-22T00:48:59;3.03;;;2.72;;
40533;SDS011;26233;51.894;10.192;2022-10-22T00:51:31;2.65;;;2.45;;
40533;SDS011;26233;51.894;10.192;2022-10-22T00:54:00;2.67;;;2.47;;
40533;SDS011;26233;51.894;10.192;2022-10-22T00:56:32;3.38;;;3.08;;
40533;SDS011;26233;51.894;10.192;2022-10-22T00:58:59;3.95;;;3.20;;
40533;SDS011;26233;51.894;10.192;2022-10-22T01:01:29;3.38;;;3.08;;
40533;SDS011;26233;51.894;10.192;2022-10-22T01:03:58;3.45;;;3.15;;
40533;SDS011;26233;51.894;10.192;2022-10-22T01:06:26;3.30;;;3.10;;
40533;SDS011;26233;51.894;10.192;2022-10-22T01:09:00;3.10;;;2.90;;
40533;SDS011;26233;51.894;10.192;2022-10-22T01:11:39;3.83;;;3.08;;
40533;SDS011;26233;51.894;10.192;2022-10-22T01:14:21;2.85;;;2.65;;
40533;SDS011;26233;51.894;10.192;2022-10-22T01:16:58;3.20;;;2.90;;
40533;SDS011;26233;51.894;10.192;2022-10-22T01:19:36;2.92;;;2.70;;
40533;SDS011;26233;51.894;10.192;2022-10-22T01:22:16;3.13;;;2.70;;
40533;SDS011;26233;51.894;10.192;2022-10-22T01:24:55;3.97;;;2.80;;
40533;SDS011;26233;51.894;10.192;2022-10-22T01:27:28;3.05;;;2.75;;
40533;SDS011;26233;51.894;10.192;2022-10-22T01:30:18;3.10;;;2.90;;
40533;SDS011;26233;51.894;10.192;2022-10-22T01:32:47;3.38;;;2.58;;
40533;SDS011;26233;51.894;10.192;2022-10-22T01:35:18;3.20;;;2.90;;
40533;SDS011;26233;51.894;10.192;2022-10-22T01:37:51;3.03;;;2.83;;
40533;SDS011;26233;51.894;10.192;2022-10-22T01:40:23;3.25;;;3.05;;
40533;SDS011;26233;51.894;10.192;2022-10-22T01:42:56;3.20;;;2.85;;
40533;SDS011;26233;51.894;10.192;2022-10-22T01:45:26;3.17;;;2.88;;
40533;SDS011;26233;51.894;10.192;2022-10-22T01:47:57;2.95;;;2.72;;
40533;SDS011;26233;51.894;10.192;2022-10-22T01:53:37;2.67;;;2.47;;
40533;SDS011;26233;51.894;10.192;2022-10-22T01:56:17;2.72;;;2.53;;
40533;SDS011;26233;51.894;10.192;2022-10-22T01:59:02;2.78;;;2.58;;
40533;SDS011;26233;51.894;10.192;2022-10-22T02:01:37;3.08;;;2.88;;
40533;SDS011;26233;51.894;10.192;2022-10-22T02:04:14;3.33;;;2.78;;
40533;SDS011;26233;51.894;10.192;2022-10-22T02:06:45;2.92;;;2.72;;
40533;SDS011;26233;51.894;10.192;2022-10-22T02:09:15;2.83;;;2.63;;
40533;SDS011;26233;51.894;10.192;2022-10-22T02:11:46;3.15;;;2.67;;
40533;SDS011;26233;51.894;10.192;2022-10-22T02:14:14;3.38;;;3.08;;
40533;SDS011;26233;51.894;10.192;2022-10-22T02:16:45;2.97;;;2.78;;
40533;SDS011;26233;51.894;10.192;2022-10-22T02:19:14;3.15;;;2.92;;
40533;SDS011;26233;51.894;10.192;2022-10-22T02:21:48;2.80;;;2.60;;
40533;SDS011;26233;51.894;10.192;2022-10-22T02:24:15;3.08;;;2.78;;
40533;SDS011;26233;51.894;10.192;2022-10-22T02:26:45;3.00;;;2.70;;
40533;SDS011;26233;51.894;10.192;2022-10-22T02:29:19;2.97;;;2.78;;
40533;SDS011;26233;51.894;10.192;2022-10-22T02:31:52;3.10;;;2.80;;
40533;SDS011;26233;51.894;10.192;2022-10-22T02:34:22;3.97;;;2.80;;
40533;SDS011;26233;51.894;10.192;2022-10-22T02:36:53;3.15;;;2.58;;
40533;SDS011;26233;51.894;10.192;2022-10-22T02:39:21;3.13;;;2.85;;
40533;SDS011;26233;51.894;10.192;2022-10-22T02:41:49;3.40;;;3.10;;
40533;SDS011;26233;51.894;10.192;2022-10-22T02:44:19;3.67;;;3.15;;
40533;SDS011;26233;51.894;10.192;2022-10-22T02:46:47;3.80;;;3.47;;
40533;SDS011;26233;51.894;10.192;2022-10-22T02:49:16;3.28;;;2.88;;
40533;SDS011;26233;51.894;10.192;2022-10-22T02:51:43;3.10;;;2.80;;
40533;SDS011;26233;51.894;10.192;2022-10-22T02:54:10;3.30;;;3.00;;
40533;SDS011;26233;51.894;10.192;2022-10-22T02:56:37;4.18;;;3.40;;
40533;SDS011;26233;51.894;10.192;2022-10-22T02:59:04;3.63;;;3.28;;
40533;SDS011;26233;51.894;10.192;2022-10-22T03:01:31;3.60;;;3.22;;
40533;SDS011;26233;51.894;10.192;2022-10-22T03:03:58;3.67;;;3.38;;
40533;SDS011;26233;51.894;10.192;2022-10-22T03:06:27;4.20;;;3.80;;
40533;SDS011;26233;51.894;10.192;2022-10-22T03:08:54;4.15;;;3.67;;
40533;SDS011;26233;51.894;10.192;2022-10-22T03:11:21;4.22;;;3.83;;
40533;SDS011;26233;51.894;10.192;2022-10-22T03:13:48;4.60;;;4.20;;
40533;SDS011;26233;51.894;10.192;2022-10-22T03:16:15;4.63;;;4.22;;
40533;SDS011;26233;51.894;10.192;2022-10-22T03:18:42;4.57;;;4.18;;
40533;SDS011;26233;51.894;10.192;2022-10-22T03:21:11;5.00;;;4.53;;
40533;SDS011;26233;51.894;10.192;2022-10-22T03:23:48;4.97;;;4.30;;
40533;SDS011;26233;51.894;10.192;2022-10-22T03:26:15;4.60;;;3.92;;
40533;SDS011;26233;51.894;10.192;2022-10-22T03:28:42;3.88;;;3.58;;
40533;SDS011;26233;51.894;10.192;2022-10-22T03:31:10;4.97;;;4.47;;
40533;SDS011;26233;51.894;10.192;2022-10-22T03:33:37;6.47;;;4.50;;
40533;SDS011;26233;51.894;10.192;2022-10-22T03:36:05;5.18;;;4.38;;
40533;SDS011;26233;51.894;10.192;2022-10-22T03:38:33;4.97;;;4.13;;
40533;SDS011;26233;51.894;10.192;2022-10-22T03:41:02;4.57;;;4.07;;
40533;SDS011;26233;51.894;10.192;2022-10-22T03:43:30;8.38;;;4.55;;
40533;SDS011;26233;51.894;10.192;2022-10-22T03:45:57;7.90;;;4.40;;
40533;SDS011;26233;51.894;10.192;2022-10-22T03:48:24;5.03;;;4.30;;
40533;SDS011;26233;51.894;10.192;2022-10-22T03:50:51;5.95;;;4.47;;
40533;SDS011;26233;51.894;10.192;2022-10-22T03:53:18;5.38;;;4.43;;
40533;SDS011;26233;51.894;10.192;2022-10-22T03:55:45;4.65;;;4.07;;
40533;SDS011;26233;51.894;10.192;2022-10-22T03:58:13;5.45;;;4.40;;
40533;SDS011;26233;51.894;10.192;2022-10-22T04:00:40;5.82;;;4.53;;
40533;SDS011;26233;51.894;10.192;2022-10-22T04:03:07;4.85;;;4.40;;
40533;SDS011;26233;51.894;10.192;2022-10-22T04:05:34;4.35;;;3.95;;
40533;SDS011;26233;51.894;10.192;2022-10-22T04:08:02;4.20;;;3.80;;
40533;SDS011;26233;51.894;10.192;2022-10-22T04:10:29;4.65;;;4.20;;
40533;SDS011;26233;51.894;10.192;2022-10-22T04:12:56;5.70;;;3.63;;
40533;SDS011;26233;51.894;10.192;2022-10-22T04:15:24;4.25;;;3.40;;
40533;SDS011;26233;51.894;10.192;2022-10-22T04:17:53;4.13;;;3.50;;
40533;SDS011;26233;51.894;10.192;2022-10-22T04:20:20;4.35;;;3.70;;
40533;SDS011;26233;51.894;10.192;2022-10-22T04:22:47;4.10;;;3.80;;
40533;SDS011;26233;51.894;10.192;2022-10-22T04:25:14;4.35;;;3.80;;
40533;SDS011;26233;51.894;10.192;2022-10-22T04:27:42;5.45;;;3.83;;
40533;SDS011;26233;51.894;10.192;2022-10-22T04:30:09;3.95;;;3.58;;
40533;SDS011;26233;51.894;10.192;2022-10-22T04:32:39;4.40;;;3.40;;
40533;SDS011;26233;51.894;10.192;2022-10-22T04:35:06;4.45;;;3.55;;
40533;SDS011;26233;51.894;10.192;2022-10-22T04:37:33;3.67;;;3.38;;
40533;SDS011;26233;51.894;10.192;2022-10-22T04:40:00;3.95;;;3.65;;
40533;SDS011;26233;51.894;10.192;2022-10-22T04:42:28;4.07;;;3.78;;
40533;SDS011;26233;51.894;10.192;2022-10-22T04:44:55;4.35;;;3.95;;
40533;SDS011;26233;51.894;10.192;2022-10-22T04:47:22;4.10;;;3.80;;
40533;SDS011;26233;51.894;10.192;2022-10-22T04:49:50;4.03;;;3.63;;
40533;SDS011;26233;51.894;10.192;2022-10-22T04:52:17;5.28;;;4.07;;
40533;SDS011;26233;51.894;10.192;2022-10-22T04:54:44;4.43;;;3.58;;
40533;SDS011;26233;51.894;10.192;2022-10-22T04:57:12;4.40;;;3.75;;
40533;SDS011;26233;51.894;10.192;2022-10-22T04:59:39;4.18;;;3.78;;
40533;SDS011;26233;51.894;10.192;2022-10-22T05:02:06;3.97;;;3.67;;
40533;SDS011;26233;51.894;10.192;2022-10-22T05:04:33;4.20;;;3.90;;
40533;SDS011;26233;51.894;10.192;2022-10-22T05:07:02;5.15;;;3.60;;
40533;SDS011;26233;51.894;10.192;2022-10-22T05:09:29;4.70;;;4.07;;
40533;SDS011;26233;51.894;10.192;2022-10-22T05:11:56;4.07;;;3.78;;
40533;SDS011;26233;51.894;10.192;2022-10-22T05:14:23;4.25;;;3.85;;
40533;SDS011;26233;51.894;10.192;2022-10-22T05:16:51;5.25;;;3.83;;
40533;SDS011;26233;51.894;10.192;2022-10-22T05:19:19;8.77;;;4.75;;
40533;SDS011;26233;51.894;10.192;2022-10-22T05:21:49;5.43;;;4.93;;
40533;SDS011;26233;51.894;10.192;2022-10-22T05:24:17;5.03;;;4.57;;
40533;SDS011;26233;51.894;10.192;2022-10-22T05:26:44;5.07;;;4.28;;
40533;SDS011;26233;51.894;10.192;2022-10-22T05:29:14;5.82;;;5.28;;
40533;SDS011;26233;51.894;10.192;2022-10-22T05:31:41;6.03;;;4.97;;
40533;SDS011;26233;51.894;10.192;2022-10-22T05:34:08;5.15;;;4.75;;
40533;SDS011;26233;51.894;10.192;2022-10-22T05:36:35;5.18;;;4.75;;
40533;SDS011;26233;51.894;10.192;2022-10-22T05:39:02;5.95;;;5.22;;
40533;SDS011;26233;51.894;10.192;2022-10-22T05:41:31;5.22;;;4.72;;
40533;SDS011;26233;51.894;10.192;2022-10-22T05:44:00;5.13;;;4.50;;
40533;SDS011;26233;51.894;10.192;2022-10-22T05:46:29;5.15;;;4.65;;
40533;SDS011;26233;51.894;10.192;2022-10-22T05:49:00;6.03;;;4.47;;
40533;SDS011;26233;51.894;10.192;2022-10-22T05:51:30;4.85;;;4.45;;
40533;SDS011;26233;51.894;10.192;2022-10-22T05:54:00;4.60;;;4.25;;
40533;SDS011;26233;51.894;10.192;2022-10-22T05:56:31;4.32;;;3.92;;
40533;SDS011;26233;51.894;10.192;2022-10-22T05:59:00;5.18;;;3.83;;
40533;SDS011;26233;51.894;10.192;2022-10-22T06:01:28;4.53;;;3.75;;
40533;SDS011;26233;51.894;10.192;2022-10-22T06:04:00;4.25;;;3.85;;
40533;SDS011;26233;51.894;10.192;2022-10-22T06:06:30;5.10;;;4.05;;
40533;SDS011;26233;51.894;10.192;2022-10-22T06:09:01;4.97;;;3.92;;
40533;SDS011;26233;51.894;10.192;2022-10-22T06:11:32;5.07;;;3.33;;
40533;SDS011;26233;51.894;10.192;2022-10-22T06:13:59;4.22;;;3.83;;
40533;SDS011;26233;51.894;10.192;2022-10-22T06:16:27;5.88;;;3.78;;
40533;SDS011;26233;51.894;10.192;2022-10-22T06:18:54;4.18;;;3.78;;
40533;SDS011;26233;51.894;10.192;2022-10-22T06:21:24;3.63;;;3.25;;
40533;SDS011;26233;51.894;10.192;2022-10-22T06:23:51;4.13;;;3.72;;
40533;SDS011;26233;51.894;10.192;2022-10-22T06:26:18;3.75;;;3.35;;
40533;SDS011;26233;51.894;10.192;2022-10-22T06:28:46;3.95;;;3.17;;
40533;SDS011;26233;51.894;10.192;2022-10-22T06:31:13;5.00;;;3.85;;
40533;SDS011;26233;51.894;10.192;2022-10-22T06:33:40;3.97;;;3.67;;
40533;SDS011;26233;51.894;10.192;2022-10-22T06:36:08;3.70;;;3.40;;
40533;SDS011;26233;51.894;10.192;2022-10-22T06:38:38;5.07;;;3.78;;
40533;SDS011;26233;51.894;10.192;2022-10-22T06:41:06;4.78;;;3.75;;
40533;SDS011;26233;51.894;10.192;2022-10-22T06:43:34;4.60;;;3.72;;
40533;SDS011;26233;51.894;10.192;2022-10-22T06:46:04;4.22;;;3.92;;
40533;SDS011;26233;51.894;10.192;2022-10-22T06:48:33;4.10;;;3.70;;
40533;SDS011;26233;51.894;10.192;2022-10-22T06:51:02;3.97;;;3.67;;
40533;SDS011;26233;51.894;10.192;2022-10-22T06:53:30;4.20;;;3.80;;
40533;SDS011;26233;51.894;10.192;2022-10-22T06:55:58;4.15;;;3.80;;
40533;SDS011;26233;51.894;10.192;2022-10-22T06:58:29;4.32;;;3.92;;
40533;SDS011;26233;51.894;10.192;2022-10-22T07:00:59;4.65;;;4.07;;
40533;SDS011;26233;51.894;10.192;2022-10-22T07:03:29;5.45;;;4.95;;
40533;SDS011;26233;51.894;10.192;2022-10-22T07:05:58;4.93;;;4.40;;
40533;SDS011;26233;51.894;10.192;2022-10-22T07:08:25;4.45;;;4.05;;
40533;SDS011;26233;51.894;10.192;2022-10-22T07:10:53;4.35;;;3.95;;
40533;SDS011;26233;51.894;10.192;2022-10-22T07:13:21;4.65;;;4.18;;
40533;SDS011;26233;51.894;10.192;2022-10-22T07:15:51;4.82;;;4.43;;
40533;SDS011;26233;51.894;10.192;2022-10-22T07:18:18;5.18;;;4.32;;
40533;SDS011;26233;51.894;10.192;2022-10-22T07:20:47;4.40;;;4.07;;
40533;SDS011;26233;51.894;10.192;2022-10-22T07:23:14;4.82;;;4.15;;
40533;SDS011;26233;51.894;10.192;2022-10-22T07:25:42;4.20;;;3.80;;
40533;SDS011;26233;51.894;10.192;2022-10-22T07:28:09;4.43;;;4.03;;
40533;SDS011;26233;51.894;10.192;2022-10-22T07:30:37;4.30;;;3.90;;
40533;SDS011;26233;51.894;10.192;2022-10-22T07:33:05;5.13;;;4.03;;
40533;SDS011;26233;51.894;10.192;2022-10-22T07:35:35;4.20;;;3.85;;
40533;SDS011;26233;51.894;10.192;2022-10-22T07:38:03;4.38;;;4.03;;
40533;SDS011;26233;51.894;10.192;2022-10-22T07:40:31;4.85;;;4.40;;
40533;SDS011;26233;51.894;10.192;2022-10-22T07:42:58;4.93;;;4.38;;
40533;SDS011;26233;51.894;10.192;2022-10-22T07:45:25;4.85;;;4.15;;
40533;SDS011;26233;51.894;10.192;2022-10-22T07:47:52;4.28;;;3.97;;
40533;SDS011;26233;51.894;10.192;2022-10-22T07:50:19;4.60;;;3.53;;
40533;SDS011;26233;51.894;10.192;2022-10-22T07:52:47;4.55;;;3.65;;
40533;SDS011;26233;51.894;10.192;2022-10-22T07:55:15;4.53;;;3.55;;
40533;SDS011;26233;51.894;10.192;2022-10-22T07:57:42;4.80;;;3.35;;
40533;SDS011;26233;51.894;10.192;2022-10-22T08:00:10;3.10;;;2.90;;
40533;SDS011;26233;51.894;10.192;2022-10-22T08:02:38;3.58;;;3.28;;
40533;SDS011;26233;51.894;10.192;2022-10-22T08:05:05;3.63;;;3.33;;
40533;SDS011;26233;51.894;10.192;2022-10-22T08:07:33;4.05;;;3.75;;
40533;SDS011;26233;51.894;10.192;2022-10-22T08:10:02;4.15;;;3.58;;
40533;SDS011;26233;51.894;10.192;2022-10-22T08:12:31;4.38;;;3.75;;
40533;SDS011;26233;51.894;10.192;2022-10-22T08:14:58;3.67;;;3.20;;
40533;SDS011;26233;51.894;10.192;2022-10-22T08:17:25;3.65;;;3.35;;
40533;SDS011;26233;51.894;10.192;2022-10-22T08:19:52;4.38;;;3.83;;
40533;SDS011;26233;51.894;10.192;2022-10-22T08:22:19;4.80;;;3.85;;
40533;SDS011;26233;51.894;10.192;2022-10-22T08:24:46;5.05;;;4.43;;
40533;SDS011;26233;51.894;10.192;2022-10-22T08:27:14;5.25;;;4.75;;
40533;SDS011;26233;51.894;10.192;2022-10-22T08:29:43;5.10;;;4.70;;
40533;SDS011;26233;51.894;10.192;2022-10-22T08:32:10;6.13;;;4.95;;
40533;SDS011;26233;51.894;10.192;2022-10-22T08:34:37;5.28;;;4.88;;
40533;SDS011;26233;51.894;10.192;2022-10-22T08:37:04;5.15;;;4.75;;
40533;SDS011;26233;51.894;10.192;2022-10-22T08:39:32;4.43;;;3.97;;
40533;SDS011;26233;51.894;10.192;2022-10-22T08:42:02;4.93;;;4.45;;
40533;SDS011;26233;51.894;10.192;2022-10-22T08:44:53;4.50;;;4.07;;
40533;SDS011;26233;51.894;10.192;2022-10-22T08:47:46;6.93;;;4.32;;
40533;SDS011;26233;51.894;10.192;2022-10-22T08:50:33;3.95;;;3.55;;
40533;SDS011;26233;51.894;10.192;2022-10-22T08:53:04;4.05;;;3.70;;
40533;SDS011;26233;51.894;10.192;2022-10-22T08:55:38;5.13;;;3.60;;
40533;SDS011;26233;51.894;10.192;2022-10-22T08:58:08;4.22;;;3.83;;
40533;SDS011;26233;51.894;10.192;2022-10-22T09:00:46;4.20;;;3.63;;
40533;SDS011;26233;51.894;10.192;2022-10-22T09:03:26;4.00;;;3.70;;
40533;SDS011;26233;51.894;10.192;2022-10-22T09:06:04;4.13;;;3.72;;
40533;SDS011;26233;51.894;10.192;2022-10-22T09:08:38;5.45;;;3.67;;
40533;SDS011;26233;51.894;10.192;2022-10-22T09:11:12;4.90;;;4.05;;
40533;SDS011;26233;51.894;10.192;2022-10-22T09:13:48;5.35;;;3.70;;
40533;SDS011;26233;51.894;10.192;2022-10-22T09:16:18;5.97;;;3.63;;
40533;SDS011;26233;51.894;10.192;2022-10-22T09:18:59;4.13;;;3.70;;
40533;SDS011;26233;51.894;10.192;2022-10-22T09:21:40;3.85;;;3.55;;
40533;SDS011;26233;51.894;10.192;2022-10-22T09:24:19;4.85;;;4.25;;
40533;SDS011;26233;51.894;10.192;2022-10-22T09:26:58;5.20;;;4.00;;
40533;SDS011;26233;51.894;10.192;2022-10-22T09:29:28;4.10;;;3.47;;
40533;SDS011;26233;51.894;10.192;2022-10-22T09:32:00;4.53;;;3.70;;
40533;SDS011;26233;51.894;10.192;2022-10-22T09:34:27;4.15;;;3.80;;
40533;SDS011;26233;51.894;10.192;2022-10-22T09:36:58;4.72;;;4.22;;
40533;SDS011;26233;51.894;10.192;2022-10-22T09:39:28;4.72;;;4.10;;
40533;SDS011;26233;51.894;10.192;2022-10-22T09:41:59;4.22;;;3.80;;
40533;SDS011;26233;51.894;10.192;2022-10-22T09:44:26;4.05;;;3.75;;
40533;SDS011;26233;51.894;10.192;2022-10-22T09:46:54;4.22;;;3.83;;
40533;SDS011;26233;51.894;10.192;2022-10-22T09:49:22;4.53;;;4.13;;
40533;SDS011;26233;51.894;10.192;2022-10-22T09:51:51;6.72;;;4.20;;
40533;SDS011;26233;51.894;10.192;2022-10-22T09:54:21;5.18;;;4.18;;
40533;SDS011;26233;51.894;10.192;2022-10-22T09:56:52;4.22;;;3.90;;
40533;SDS011;26233;51.894;10.192;2022-10-22T09:59:26;4.47;;;3.80;;
40533;SDS011;26233;51.894;10.192;2022-10-22T10:02:00;4.72;;;4.32;;
40533;SDS011;26233;51.894;10.192;2022-10-22T10:04:39;4.53;;;3.72;;
40533;SDS011;26233;51.894;10.192;2022-10-22T10:07:14;4.15;;;3.72;;
40533;SDS011;26233;51.894;10.192;2022-10-22T10:09:43;4.57;;;4.10;;
40533;SDS011;26233;51.894;10.192;2022-10-22T10:12:13;4.70;;;4.30;;
40533;SDS011;26233;51.894;10.192;2022-10-22T10:14:52;6.50;;;3.70;;
40533;SDS011;26233;51.894;10.192;2022-10-22T10:17:30;5.10;;;3.67;;
40533;SDS011;26233;51.894;10.192;2022-10-22T10:20:12;4.20;;;3.80;;
40533;SDS011;26233;51.894;10.192;2022-10-22T10:22:52;4.70;;;3.40;;
40533;SDS011;26233;51.894;10.192;2022-10-22T10:25:44;3.92;;;3.42;;
40533;SDS011;26233;51.894;10.192;2022-10-22T10:28:21;4.10;;;2.90;;
40533;SDS011;26233;51.894;10.192;2022-10-22T10:31:09;3.67;;;3.38;;
40533;SDS011;26233;51.894;10.192;2022-10-22T10:33:48;3.33;;;2.92;;
40533;SDS011;26233;51.894;10.192;2022-10-22T10:36:26;4.60;;;2.95;;
40533;SDS011;26233;51.894;10.192;2022-10-22T10:39:06;3.30;;;3.00;;
40533;SDS011;26233;51.894;10.192;2022-10-22T10:41:41;3.05;;;2.85;;
40533;SDS011;26233;51.894;10.192;2022-10-22T10:44:36;3.40;;;2.95;;
40533;SDS011;26233;51.894;10.192;2022-10-22T10:47:20;2.60;;;2.40;;
40533;SDS011;26233;51.894;10.192;2022-10-22T10:50:17;3.15;;;2.35;;
40533;SDS011;26233;51.894;10.192;2022-10-22T10:52:53;2.50;;;2.30;;
40533;SDS011;26233;51.894;10.192;2022-10-22T10:55:30;2.65;;;2.40;;
40533;SDS011;26233;51.894;10.192;2022-10-22T10:58:04;2.53;;;2.33;;
40533;SDS011;26233;51.894;10.192;2022-10-22T11:00:40;2.90;;;2.10;;
40533;SDS011;26233;51.894;10.192;2022-10-22T11:03:31;2.63;;;2.42;;
40533;SDS011;26233;51.894;10.192;2022-10-22T11:06:11;3.08;;;2.35;;
40533;SDS011;26233;51.894;10.192;2022-10-22T11:08:43;2.65;;;2.45;;
40533;SDS011;26233;51.894;10.192;2022-10-22T11:11:20;4.18;;;2.92;;
40533;SDS011;26233;51.894;10.192;2022-10-22T11:13:55;2.75;;;2.55;;
40533;SDS011;26233;51.894;10.192;2022-10-22T11:16:28;3.17;;;2.88;;
40533;SDS011;26233;51.894;10.192;2022-10-22T11:19:02;3.22;;;2.85;;
40533;SDS011;26233;51.894;10.192;2022-10-22T11:21:36;2.92;;;2.72;;
40533;SDS011;26233;51.894;10.192;2022-10-22T11:24:11;2.65;;;2.45;;
40533;SDS011;26233;51.894;10.192;2022-10-22T11:26:45;4.60;;;2.53;;
40533;SDS011;26233;51.894;10.192;2022-10-22T11:29:20;2.20;;;2.00;;
40533;SDS011;26233;51.894;10.192;2022-10-22T11:31:51;2.08;;;1.90;;
40533;SDS011;26233;51.894;10.192;2022-10-22T11:34:21;2.25;;;1.90;;
40533;SDS011;26233;51.894;10.192;2022-10-22T11:36:53;2.05;;;1.95;;
40533;SDS011;26233;51.894;10.192;2022-10-22T11:39:32;2.47;;;1.90;;
40533;SDS011;26233;51.894;10.192;2022-10-22T11:42:05;1.85;;;1.65;;
40533;SDS011;26233;51.894;10.192;2022-10-22T11:44:57;3.20;;;1.90;;
40533;SDS011;26233;51.894;10.192;2022-10-22T11:47:27;2.30;;;2.10;;
40533;SDS011;26233;51.894;10.192;2022-10-22T11:49:59;2.42;;;1.92;;
40533;SDS011;26233;51.894;10.192;2022-10-22T11:52:52;2.35;;;2.08;;
40533;SDS011;26233;51.894;10.192;2022-10-22T11:55:32;3.10;;;1.95;;
40533;SDS011;26233;51.894;10.192;2022-10-22T11:58:24;2.10;;;1.90;;
40533;SDS011;26233;51.894;10.192;2022-10-22T12:01:15;2.47;;;1.50;;
40533;SDS011;26233;51.894;10.192;2022-10-22T12:03:52;1.85;;;1.75;;
40533;SDS011;26233;51.894;10.192;2022-10-22T12:06:53;2.67;;;2.00;;
40533;SDS011;26233;51.894;10.192;2022-10-22T12:09:23;1.98;;;1.77;;
40533;SDS011;26233;51.894;10.192;2022-10-22T12:11:55;3.35;;;1.90;;
40533;SDS011;26233;51.894;10.192;2022-10-22T12:14:36;2.42;;;1.80;;
40533;SDS011;26233;51.894;10.192;2022-10-22T12:17:17;2.08;;;1.80;;
40533;SDS011;26233;51.894;10.192;2022-10-22T12:19:46;2.58;;;1.88;;
40533;SDS011;26233;51.894;10.192;2022-10-22T12:22:20;1.75;;;1.52;;
40533;SDS011;26233;51.894;10.192;2022-10-22T12:24:52;2.05;;;1.85;;
40533;SDS011;26233;51.894;10.192;2022-10-22T12:27:23;2.47;;;1.77;;
40533;SDS011;26233;51.894;10.192;2022-10-22T12:29:55;1.95;;;1.70;;
40533;SDS011;26233;51.894;10.192;2022-10-22T12:32:28;4.72;;;1.88;;
40533;SDS011;26233;51.894;10.192;2022-10-22T12:35:02;4.63;;;1.90;;
40533;SDS011;26233;51.894;10.192;2022-10-22T12:37:33;2.35;;;1.90;;
40533;SDS011;26233;51.894;10.192;2022-10-22T12:40:02;1.52;;;1.42;;
40533;SDS011;26233;51.894;10.192;2022-10-22T12:42:46;6.07;;;2.10;;
40533;SDS011;26233;51.894;10.192;2022-10-22T12:45:16;2.50;;;1.80;;
40533;SDS011;26233;51.894;10.192;2022-10-22T12:47:46;3.08;;;2.00;;
40533;SDS011;26233;51.894;10.192;2022-10-22T12:50:17;2.88;;;2.00;;
40533;SDS011;26233;51.894;10.192;2022-10-22T12:52:46;3.38;;;1.80;;
40533;SDS011;26233;51.894;10.192;2022-10-22T12:55:14;1.70;;;1.60;;
40533;SDS011;26233;51.894;10.192;2022-10-22T12:57:46;3.05;;;1.73;;
40533;SDS011;26233;51.894;10.192;2022-10-22T13:00:21;2.55;;;1.67;;
40533;SDS011;26233;51.894;10.192;2022-10-22T13:02:51;3.28;;;1.85;;
40533;SDS011;26233;51.894;10.192;2022-10-22T13:05:22;2.10;;;1.83;;
40533;SDS011;26233;51.894;10.192;2022-10-22T13:07:52;2.95;;;1.80;;
40533;SDS011;26233;51.894;10.192;2022-10-22T13:10:30;3.13;;;2.00;;
40533;SDS011;26233;51.894;10.192;2022-10-22T13:13:00;2.08;;;1.85;;
40533;SDS011;26233;51.894;10.192;2022-10-22T13:15:35;2.83;;;1.70;;
40533;SDS011;26233;51.894;10.192;2022-10-22T13:18:05;1.80;;;1.70;;
40533;SDS011;26233;51.894;10.192;2022-10-22T13:20:52;3.50;;;1.80;;
40533;SDS011;26233;51.894;10.192;2022-10-22T13:23:21;2.63;;;1.73;;
40533;SDS011;26233;51.894;10.192;2022-10-22T13:25:58;2.08;;;1.60;;
40533;SDS011;26233;51.894;10.192;2022-10-22T13:28:29;2.97;;;1.77;;
40533;SDS011;26233;51.894;10.192;2022-10-22T13:30:57;2.28;;;1.92;;
40533;SDS011;26233;51.894;10.192;2022-10-22T13:33:28;2.03;;;1.60;;
40533;SDS011;26233;51.894;10.192;2022-10-22T13:35:59;3.75;;;1.77;;
40533;SDS011;26233;51.894;10.192;2022-10-22T13:38:27;2.47;;;1.67;;
40533;SDS011;26233;51.894;10.192;2022-10-22T13:40:55;2.15;;;1.92;;
40533;SDS011;26233;51.894;10.192;2022-10-22T13:43:23;3.47;;;1.80;;
40533;SDS011;26233;51.894;10.192;2022-10-22T13:45:53;2.60;;;1.50;;
40533;SDS011;26233;51.894;10.192;2022-10-22T13:48:23;3.72;;;1.88;;
40533;SDS011;26233;51.894;10.192;2022-10-22T13:50:53;2.30;;;1.70;;
40533;SDS011;26233;51.894;10.192;2022-10-22T13:53:21;1.92;;;1.73;;
40533;SDS011;26233;51.894;10.192;2022-10-22T13:55:51;2.17;;;1.77;;
40533;SDS011;26233;51.894;10.192;2022-10-22T13:58:19;1.83;;;1.67;;
40533;SDS011;26233;51.894;10.192;2022-10-22T14:00:49;2.10;;;1.85;;
40533;SDS011;26233;51.894;10.192;2022-10-22T14:03:21;3.35;;;1.83;;
40533;SDS011;26233;51.894;10.192;2022-10-22T14:05:52;2.22;;;1.70;;
40533;SDS011;26233;51.894;10.192;2022-10-22T14:08:19;2.25;;;1.60;;
40533;SDS011;26233;51.894;10.192;2022-10-22T14:10:49;2.05;;;1.77;;
40533;SDS011;26233;51.894;10.192;2022-10-22T14:13:17;1.70;;;1.50;;
40533;SDS011;26233;51.894;10.192;2022-10-22T14:15:45;2.70;;;1.80;;
40533;SDS011;26233;51.894;10.192;2022-10-22T14:18:18;2.03;;;1.60;;
40533;SDS011;26233;51.894;10.192;2022-10-22T14:20:51;2.15;;;1.75;;
40533;SDS011;26233;51.894;10.192;2022-10-22T14:23:20;2.17;;;1.60;;
40533;SDS011;26233;51.894;10.192;2022-10-22T14:25:50;1.55;;;1.45;;
40533;SDS011;26233;51.894;10.192;2022-10-22T14:28:17;2.20;;;1.50;;
40533;SDS011;26233;51.894;10.192;2022-10-22T14:30:44;3.35;;;1.70;;
40533;SDS011;26233;51.894;10.192;2022-10-22T14:33:13;1.92;;;1.67;;
40533;SDS011;26233;51.894;10.192;2022-10-22T14:35:44;2.63;;;1.75;;
40533;SDS011;26233;51.894;10.192;2022-10-22T14:38:12;1.90;;;1.58;;
40533;SDS011;26233;51.894;10.192;2022-10-22T14:40:39;1.85;;;1.40;;
40533;SDS011;26233;51.894;10.192;2022-10-22T14:43:09;4.35;;;1.48;;
40533;SDS011;26233;51.894;10.192;2022-10-22T14:45:36;2.00;;;1.30;;
40533;SDS011;26233;51.894;10.192;2022-10-22T14:48:03;1.95;;;1.33;;
40533;SDS011;26233;51.894;10.192;2022-10-22T14:50:33;3.08;;;1.50;;
40533;SDS011;26233;51.894;10.192;2022-10-22T14:53:00;3.30;;;1.60;;
40533;SDS011;26233;51.894;10.192;2022-10-22T14:55:27;2.08;;;1.40;;
40533;SDS011;26233;51.894;10.192;2022-10-22T14:57:54;1.50;;;1.23;;
40533;SDS011;26233;51.894;10.192;2022-10-22T15:00:22;1.48;;;1.35;;
40533;SDS011;26233;51.894;10.192;2022-10-22T15:02:49;1.70;;;1.48;;